KDRO/DRO METAR and TAF weather

Enter ICAO airport designator
Station Type Date Time Source
KDRO METAR 2021/05/11 15:53 UTC NOAA

KDRO 111553Z AUTO 28006G14KT 10SM CLR 12/M11 A3011 RMK AO2 SLP145 T01221106


Station Type Date Time Source
KDRO Decoded METAR 2021/05/11 15:53 UTC NOAA

DURANGO-LA PLATA COUNTY AIRPORT , CO, United States (KDRO) 37-09N 107-46W 2035M
May 11, 2021 - 11:53 AM EDT / 2021.05.11 1553 UTC
Wind: from the W (280 degrees) at 7 MPH (6 KT) gusting to 16 MPH (14 KT):0
Visibility: 10 mile(s):0
Sky conditions: clear
Temperature: 54.0 F (12.2 C)
Dew Point: 12.9 F (-10.6 C)
Relative Humidity: 19%
Pressure (altimeter): 30.11 in. Hg (1019 hPa)
ob: KDRO 111553Z AUTO 28006G14KT 10SM CLR 12/M11 A3011 RMK AO2 SLP145 T01221106
cycle: 16

Station Type Date Time Source
KDRO TAF 2021/05/11 12:39 UTC NOAA

TAF KDRO 111136Z 1112/1212 01005KT P6SM SKC
FM111700 26012G21KT P6SM FEW100
FM120200 29008KT P6SM FEW250
FM120400 35005KT P6SM SKC

Example: see airport list